createdAt,value
2019-04-01T00:00:04.990Z,48.5679
2019-04-01T00:00:28.381Z,48.8655
2019-04-01T00:00:51.697Z,49.0471
2019-04-01T00:01:15.036Z,48.9052
2019-04-01T00:01:38.394Z,48.7083
2019-04-01T00:02:01.717Z,48.8518
2019-04-01T00:02:25.069Z,48.8106
2019-04-01T00:02:48.431Z,48.6534
2019-04-01T00:03:11.757Z,48.7282
2019-04-01T00:03:35.078Z,48.7831
2019-04-01T00:04:00.491Z,48.8975
2019-04-01T00:04:26.212Z,48.7785
2019-04-01T00:04:51.591Z,48.2841
2019-04-01T00:05:16.969Z,48.4306
2019-04-01T00:05:42.350Z,48.8014
2019-04-01T00:06:07.739Z,48.6549
2019-04-01T00:06:33.126Z,48.6641
2019-04-01T00:06:58.495Z,48.3925
2019-04-01T00:07:23.886Z,48.3604
2019-04-01T00:07:49.250Z,48.5039
2019-04-01T00:08:14.620Z,48.5115
2019-04-01T00:08:39.987Z,48.9067
2019-04-01T00:09:05.530Z,48.9830
2019-04-01T00:09:30.956Z,48.6763
2019-04-01T00:09:56.331Z,48.7465
2019-04-01T00:10:21.706Z,48.6259
2019-04-01T00:10:47.074Z,48.5802
2019-04-01T00:11:12.469Z,49.1569
2019-04-01T00:11:36.468Z,49.1997
2019-04-01T00:11:59.781Z,48.7861
2019-04-01T00:12:23.103Z,48.6900
2019-04-01T00:12:46.478Z,48.8228
2019-04-01T00:13:09.884Z,48.7404
2019-04-01T00:13:33.202Z,48.5863
2019-04-01T00:13:56.563Z,48.5313
2019-04-01T00:14:19.878Z,48.3894
2019-04-01T00:14:43.230Z,48.6778
2019-04-01T00:15:06.673Z,48.7053
2019-04-01T00:15:29.984Z,48.5069
2019-04-01T00:15:53.295Z,48.6824
2019-04-01T00:16:16.638Z,48.8457
2019-04-01T00:16:39.957Z,48.8380
2019-04-01T00:17:03.269Z,48.7510
2019-04-01T00:17:26.641Z,48.6503
2019-04-01T00:17:49.977Z,48.5939
2019-04-01T00:18:13.308Z,48.4443
2019-04-01T00:18:36.861Z,48.6946
2019-04-01T00:19:03.239Z,48.7099
2019-04-01T00:19:26.963Z,48.5069
2019-04-01T00:19:50.631Z,48.7282
2019-04-01T00:20:13.943Z,48.6320
2019-04-01T00:20:37.261Z,48.6229
2019-04-01T00:21:00.615Z,48.7587
2019-04-01T00:21:23.933Z,48.7312
2019-04-01T00:21:47.248Z,48.6122
2019-04-01T00:22:10.760Z,48.6091
2019-04-01T00:22:34.119Z,48.5618
2019-04-01T00:22:57.545Z,48.7221
2019-04-01T00:23:21.048Z,48.5176
2019-04-01T00:23:44.368Z,48.7556
2019-04-01T00:24:07.690Z,49.0379
2019-04-01T00:24:31.070Z,48.6046
2019-04-01T00:24:54.452Z,48.6458
2019-04-01T00:25:17.785Z,48.8136
2019-04-01T00:25:43.184Z,48.7312
2019-04-01T00:26:08.571Z,48.4810
2019-04-01T00:26:33.951Z,48.5130
2019-04-01T00:26:59.327Z,48.3528
2019-04-01T00:27:24.789Z,48.3101
2019-04-01T00:27:50.163Z,48.6503
2019-04-01T00:28:13.670Z,48.6625
2019-04-01T00:28:36.993Z,48.6946
2019-04-01T00:29:00.315Z,48.6549
2019-04-01T00:29:23.678Z,48.6397
2019-04-01T00:29:47.009Z,48.8182
2019-04-01T00:30:10.372Z,48.7816
2019-04-01T00:30:33.741Z,48.9754
2019-04-01T00:30:57.054Z,48.7968
2019-04-01T00:31:20.362Z,48.8289
2019-04-01T00:31:43.788Z,48.8136
2019-04-01T00:32:07.117Z,48.7510
2019-04-01T00:32:30.435Z,48.6305
2019-04-01T00:32:53.801Z,48.6671
2019-04-01T00:33:17.119Z,48.3757
2019-04-01T00:33:40.447Z,48.3528
2019-04-01T00:34:06.004Z,48.4337
2019-04-01T00:34:31.378Z,48.5206
2019-04-01T00:34:56.746Z,48.3162
2019-04-01T00:35:22.157Z,48.4611
2019-04-01T00:35:47.522Z,48.4535
2019-04-01T00:36:12.900Z,48.5115
2019-04-01T00:36:38.457Z,48.5802
2019-04-01T00:37:03.830Z,48.4123
2019-04-01T00:37:29.200Z,48.7053
2019-04-01T00:37:54.570Z,48.6854
2019-04-01T00:38:19.942Z,48.6137
2019-04-01T00:38:45.309Z,48.6366
2019-04-01T00:39:08.735Z,48.7007
2019-04-01T00:39:32.050Z,48.6305
2019-04-01T00:39:55.371Z,48.7053
2019-04-01T00:40:18.778Z,48.4855
2019-04-01T00:40:31.358Z,48.2338
2019-04-01T00:40:54.676Z,48.3238
2019-04-01T00:41:17.996Z,48.3894
2019-04-01T00:41:43.415Z,48.1910
2019-04-01T00:42:08.787Z,48.1865
2019-04-01T00:42:34.159Z,48.4428
2019-04-01T00:42:59.527Z,48.3696
2019-04-01T00:43:24.891Z,48.5847
2019-04-01T00:43:50.261Z,48.3528
2019-04-01T00:44:13.663Z,48.2475
2019-04-01T00:44:40.234Z,48.5069
2019-04-01T00:45:03.839Z,48.4932
2019-04-01T00:45:27.191Z,48.3284
2019-04-01T00:45:50.561Z,48.3375
2019-04-01T00:46:13.911Z,48.3604
2019-04-01T00:46:37.279Z,48.2689
2019-04-01T00:47:00.606Z,48.1788
2019-04-01T00:47:23.929Z,48.1331
2019-04-01T00:47:47.307Z,48.1773
2019-04-01T00:48:10.700Z,48.1956
2019-04-01T00:48:34.039Z,48.1880
2019-04-01T00:48:57.410Z,48.2658
2019-04-01T00:49:20.725Z,48.1422
2019-04-01T00:49:44.039Z,48.2063
2019-04-01T00:50:07.392Z,48.1773
2019-04-01T00:50:30.701Z,48.1743
2019-04-01T00:50:54.060Z,48.0964
2019-04-01T00:51:17.579Z,48.0354
2019-04-01T00:51:40.899Z,48.1544
2019-04-01T00:52:04.220Z,48.2383
2019-04-01T00:52:27.569Z,48.1514
2019-04-01T00:52:50.886Z,47.7699
2019-04-01T00:53:17.782Z,47.8767
2019-04-01T00:53:41.404Z,48.2231
2019-04-01T00:54:04.741Z,47.9759
2019-04-01T00:54:28.066Z,47.7241
2019-04-01T00:54:51.474Z,47.8981
2019-04-01T00:55:14.789Z,47.7211
2019-04-01T00:55:38.105Z,47.6646
2019-04-01T00:56:01.504Z,47.7104
2019-04-01T00:56:24.824Z,47.8202
2019-04-01T00:56:48.155Z,47.9576
2019-04-01T00:57:11.510Z,48.0125
2019-04-01T00:57:34.825Z,48.0491
2019-04-01T00:57:58.144Z,48.1376
2019-04-01T00:58:21.529Z,48.2918
2019-04-01T00:58:44.873Z,48.0873
2019-04-01T00:59:08.192Z,47.9713
2019-04-01T00:59:31.546Z,48.0583
2019-04-01T00:59:54.864Z,48.3894
2019-04-01T01:00:18.174Z,48.1468
2019-04-01T01:00:41.531Z,48.2383
2019-04-01T01:01:04.950Z,48.1865
2019-04-01T01:01:28.276Z,48.0369
2019-04-01T01:01:51.696Z,48.1559
2019-04-01T01:02:15.008Z,48.1559
2019-04-01T01:02:38.329Z,48.3192
2019-04-01T01:03:01.700Z,48.2048
2019-04-01T01:03:25.016Z,48.0003
2019-04-01T01:03:48.353Z,47.8172
2019-04-01T01:04:11.722Z,48.2963
2019-04-01T01:04:35.039Z,48.0186
2019-04-01T01:04:58.359Z,47.9713
2019-04-01T01:05:21.773Z,47.9347
2019-04-01T01:05:45.102Z,48.0720
2019-04-01T01:06:08.454Z,48.1315
2019-04-01T01:06:31.826Z,47.8584
2019-04-01T01:06:55.150Z,47.8019
2019-04-01T01:07:18.477Z,47.9774
2019-04-01T01:07:41.848Z,47.9530
2019-04-01T01:08:05.175Z,47.9301
2019-04-01T01:08:28.494Z,47.8904
2019-04-01T01:08:52.119Z,47.9896
2019-04-01T01:09:15.464Z,48.0858
2019-04-01T01:09:38.778Z,47.9438
2019-04-01T01:10:02.128Z,48.0812
2019-04-01T01:10:25.453Z,48.0323
2019-04-01T01:10:48.778Z,47.8569
2019-04-01T01:11:12.170Z,48.0049
2019-04-01T01:11:35.478Z,47.9774
2019-04-01T01:11:58.812Z,47.9454
2019-04-01T01:12:22.233Z,47.9118
2019-04-01T01:12:45.571Z,47.6967
2019-04-01T01:13:08.901Z,47.7852
2019-04-01T01:13:32.267Z,47.8431
2019-04-01T01:13:55.664Z,47.9576
2019-04-01T01:14:19.073Z,48.1544
2019-04-01T01:14:42.449Z,48.2231
2019-04-01T01:15:05.781Z,48.1880
2019-04-01T01:15:29.095Z,48.0323
2019-04-01T01:15:52.678Z,47.8386
2019-04-01T01:16:16.023Z,48.0003
2019-04-01T01:16:39.347Z,47.8340
2019-04-01T01:17:02.704Z,48.1193
2019-04-01T01:17:26.081Z,47.9850
2019-04-01T01:17:49.417Z,47.9759
2019-04-01T01:18:12.765Z,47.9576
2019-04-01T01:18:36.093Z,47.8767
2019-04-01T01:18:59.407Z,47.9866
2019-04-01T01:19:22.901Z,47.9118
2019-04-01T01:19:46.221Z,47.8401
2019-04-01T01:20:09.546Z,47.7699
2019-04-01T01:20:33.926Z,47.8904
2019-04-01T01:20:57.237Z,47.9896
2019-04-01T01:21:20.590Z,47.6432
2019-04-01T01:21:43.950Z,47.8752
2019-04-01T01:22:07.277Z,47.9576
2019-04-01T01:22:30.589Z,47.7302
2019-04-01T01:22:53.994Z,47.6829
2019-04-01T01:23:17.316Z,47.6234
2019-04-01T01:23:40.638Z,47.6280
2019-04-01T01:24:04.013Z,48.0903
2019-04-01T01:24:27.334Z,47.9408
2019-04-01T01:24:50.656Z,48.0507
2019-04-01T01:25:14.020Z,47.9759
2019-04-01T01:25:37.354Z,47.9301
2019-04-01T01:26:00.749Z,47.8035
2019-04-01T01:26:24.306Z,47.8172
2019-04-01T01:26:47.628Z,47.8264
2019-04-01T01:27:10.946Z,47.8157
2019-04-01T01:27:34.409Z,48.0095
2019-04-01T01:27:57.805Z,47.9545
2019-04-01T01:28:21.128Z,48.1819
2019-04-01T01:28:44.584Z,47.8065
2019-04-01T01:29:07.923Z,47.8675
2019-04-01T01:29:31.242Z,47.8721
2019-04-01T01:29:56.636Z,47.6158
2019-04-01T01:30:22.027Z,47.2404
2019-04-01T01:30:47.402Z,47.3869
2019-04-01T01:31:12.772Z,47.4739
2019-04-01T01:31:38.191Z,47.3640
2019-04-01T01:32:03.573Z,47.5639
2019-04-01T01:32:27.020Z,47.6936
2019-04-01T01:32:50.344Z,47.6616
2019-04-01T01:33:13.664Z,47.4540
2019-04-01T01:33:37.045Z,47.2068
2019-04-01T01:34:00.455Z,47.4372
2019-04-01T01:34:23.780Z,47.7745
2019-04-01T01:34:47.172Z,47.6417
2019-04-01T01:35:10.496Z,47.8935
2019-04-01T01:35:33.818Z,47.8477
2019-04-01T01:35:57.338Z,47.8492
2019-04-01T01:36:20.773Z,47.7241
2019-04-01T01:36:44.113Z,47.6234
2019-04-01T01:37:07.469Z,47.7333
2019-04-01T01:37:30.789Z,47.6326
2019-04-01T01:37:54.117Z,47.6326
2019-04-01T01:38:17.472Z,47.7287
2019-04-01T01:38:40.805Z,47.6188
2019-04-01T01:39:04.133Z,47.5883
2019-04-01T01:39:27.538Z,47.4769
2019-04-01T01:39:50.857Z,47.5044
2019-04-01T01:40:14.175Z,47.4418
2019-04-01T01:40:37.541Z,47.3259
2019-04-01T01:41:00.881Z,47.1351
2019-04-01T01:41:24.209Z,47.3182
2019-04-01T01:41:47.617Z,47.5517
2019-04-01T01:42:10.930Z,47.6341
2019-04-01T01:42:34.249Z,47.4144
2019-04-01T01:42:57.772Z,47.4556
2019-04-01T01:43:21.118Z,47.3869
2019-04-01T01:43:44.430Z,47.4723
2019-04-01T01:44:07.811Z,47.3777
2019-04-01T01:44:31.124Z,47.3686
2019-04-01T01:44:54.463Z,47.3487
2019-04-01T01:45:17.837Z,47.3075
2019-04-01T01:45:41.155Z,47.3121
2019-04-01T01:45:54.333Z,46.8864
2019-04-01T01:46:17.642Z,47.3259
2019-04-01T01:46:41.195Z,47.0695
2019-04-01T01:47:04.543Z,47.1382
2019-04-01T01:47:27.868Z,47.1031
2019-04-01T01:47:51.217Z,47.0832
2019-04-01T01:48:14.547Z,46.9520
2019-04-01T01:48:37.876Z,47.0436
2019-04-01T01:49:01.239Z,47.2892
2019-04-01T01:49:24.577Z,47.5837
2019-04-01T01:49:47.896Z,47.3640
2019-04-01T01:50:11.509Z,47.2343
2019-04-01T01:50:34.836Z,47.1794
2019-04-01T01:50:58.165Z,47.3579
2019-04-01T01:51:21.735Z,47.1336
2019-04-01T01:51:45.052Z,47.4083
2019-04-01T01:52:08.425Z,47.2084
2019-04-01T01:52:31.795Z,47.2450
2019-04-01T01:52:55.114Z,47.2404
2019-04-01T01:53:18.448Z,47.0237
2019-04-01T01:53:41.945Z,47.1107
2019-04-01T01:54:05.302Z,47.1763
2019-04-01T01:54:28.636Z,47.0802
2019-04-01T01:54:52.000Z,47.0802
2019-04-01T01:55:15.315Z,46.9749
2019-04-01T01:55:38.643Z,47.1397
2019-04-01T01:56:02.008Z,46.8376
2019-04-01T01:56:25.337Z,47.0191
2019-04-01T01:56:48.650Z,47.2038
2019-04-01T01:57:12.478Z,47.0466
2019-04-01T01:57:35.811Z,47.2389
2019-04-01T01:57:59.126Z,47.0619
2019-04-01T01:58:22.488Z,47.0390
2019-04-01T01:58:45.809Z,47.3350
2019-04-01T01:59:09.153Z,47.1763
2019-04-01T01:59:32.509Z,47.1717
2019-04-01T01:59:55.831Z,47.2435
2019-04-01T02:00:19.160Z,46.9657
2019-04-01T02:00:42.573Z,47.1931
2019-04-01T02:01:05.903Z,47.0283
2019-04-01T02:01:29.248Z,47.1077
2019-04-01T02:01:52.601Z,46.7903
2019-04-01T02:02:15.970Z,47.0893
2019-04-01T02:02:39.289Z,46.8315
2019-04-01T02:03:02.646Z,47.1611
2019-04-01T02:03:25.972Z,46.9978
2019-04-01T02:03:49.297Z,46.8650
2019-04-01T02:04:12.707Z,47.1199
2019-04-01T02:04:36.023Z,46.7826
2019-04-01T02:04:59.335Z,46.9062
2019-04-01T02:05:22.699Z,46.7308
2019-04-01T02:05:46.025Z,46.8605
2019-04-01T02:06:09.379Z,46.8376
2019-04-01T02:06:32.742Z,46.5980
2019-04-01T02:06:56.065Z,46.5858
2019-04-01T02:07:19.434Z,46.5339
2019-04-01T02:07:42.839Z,46.6209
2019-04-01T02:08:06.166Z,46.7903
2019-04-01T02:08:29.484Z,46.9245
2019-04-01T02:08:52.857Z,46.7857
2019-04-01T02:09:16.188Z,46.7216
2019-04-01T02:09:39.507Z,47.0069
2019-04-01T02:10:02.884Z,46.7735
2019-04-01T02:10:26.211Z,46.7582
2019-04-01T02:10:49.547Z,46.8833
2019-04-01T02:11:12.959Z,46.8147
2019-04-01T02:11:36.280Z,46.8864
2019-04-01T02:11:59.595Z,46.6941
2019-04-01T02:12:22.991Z,46.7414
2019-04-01T02:12:46.335Z,46.6804
2019-04-01T02:13:09.689Z,46.5812
2019-04-01T02:13:33.117Z,46.5339
2019-04-01T02:13:56.437Z,46.6682
2019-04-01T02:14:19.768Z,46.6026
2019-04-01T02:14:43.261Z,46.5339
2019-04-01T02:15:06.585Z,46.5751
2019-04-01T02:15:29.922Z,46.6484
2019-04-01T02:15:53.284Z,46.7460
2019-04-01T02:16:16.597Z,46.8406
2019-04-01T02:16:39.922Z,46.6178
2019-04-01T02:17:03.276Z,46.6484
2019-04-01T02:17:26.625Z,46.6728
2019-04-01T02:17:49.941Z,46.4897
2019-04-01T02:18:13.368Z,46.6255
2019-04-01T02:18:36.685Z,46.6163
2019-04-01T02:19:00.004Z,46.4988
2019-04-01T02:19:23.353Z,46.5126
2019-04-01T02:19:46.660Z,46.7094
2019-04-01T02:20:09.992Z,46.4714
2019-04-01T02:20:33.354Z,46.5019
2019-04-01T02:20:56.682Z,46.4118
2019-04-01T02:21:20.016Z,46.3142
2019-04-01T02:21:45.425Z,46.2867
2019-04-01T02:22:10.815Z,46.6850
2019-04-01T02:22:25.319Z,46.4439
2019-04-01T02:22:50.834Z,46.1967
2019-04-01T02:23:16.208Z,46.4332
2019-04-01T02:23:41.583Z,46.4057
2019-04-01T02:24:06.960Z,46.4149
2019-04-01T02:24:30.508Z,46.2654
2019-04-01T02:24:53.820Z,46.3508
2019-04-01T02:25:17.144Z,46.2913
2019-04-01T02:25:40.506Z,46.4256
2019-04-01T02:26:03.841Z,46.2974
2019-04-01T02:26:27.174Z,46.2745
2019-04-01T02:26:50.531Z,46.2455
2019-04-01T02:27:13.852Z,46.3371
2019-04-01T02:27:37.171Z,46.1280
2019-04-01T02:28:02.740Z,46.1082
2019-04-01T02:28:28.108Z,46.1967
2019-04-01T02:28:53.548Z,46.1097
2019-04-01T02:29:18.950Z,46.1601
2019-04-01T02:29:44.316Z,46.0945
2019-04-01T02:30:09.702Z,46.4286
2019-04-01T02:30:35.251Z,46.3645
2019-04-01T02:31:00.627Z,46.2562
2019-04-01T02:31:26.007Z,46.3416
2019-04-01T02:31:51.437Z,46.2272
2019-04-01T02:32:16.839Z,46.2791
2019-04-01T02:32:42.221Z,46.2882
2019-04-01T02:33:05.977Z,46.0639
2019-04-01T02:33:29.317Z,46.1875
2019-04-01T02:33:52.651Z,46.1219
2019-04-01T02:34:16.012Z,45.7649
2019-04-01T02:34:39.334Z,45.9266
2019-04-01T02:35:02.655Z,46.0716
2019-04-01T02:35:26.021Z,45.9861
2019-04-01T02:35:49.345Z,46.0075
2019-04-01T02:36:12.684Z,46.1646
2019-04-01T02:36:36.184Z,45.9129
2019-04-01T02:36:59.534Z,45.9068
2019-04-01T02:37:22.889Z,46.0777
2019-04-01T02:37:46.293Z,45.8610
2019-04-01T02:38:09.658Z,46.1006
2019-04-01T02:38:32.995Z,45.9403
2019-04-01T02:38:56.499Z,45.9861
2019-04-01T02:39:19.837Z,46.0716
2019-04-01T02:39:43.191Z,46.2425
2019-04-01T02:40:06.918Z,45.9205
2019-04-01T02:40:30.261Z,45.9846
2019-04-01T02:40:53.588Z,46.0365
2019-04-01T02:41:16.953Z,46.1128
2019-04-01T02:41:40.287Z,46.1189
2019-04-01T02:42:03.617Z,46.0731
2019-04-01T02:42:27.008Z,46.0410
2019-04-01T02:42:50.333Z,45.9632
2019-04-01T02:43:13.775Z,46.0624
2019-04-01T02:43:37.226Z,45.9037
2019-04-01T02:44:00.573Z,46.0777
2019-04-01T02:44:23.898Z,45.9403
2019-04-01T02:44:47.274Z,45.6748
2019-04-01T02:45:10.720Z,45.9205
2019-04-01T02:45:34.058Z,46.0166
2019-04-01T02:45:57.527Z,45.9800
2019-04-01T02:46:20.875Z,46.0227
2019-04-01T02:46:44.236Z,45.7603
2019-04-01T02:47:07.770Z,45.7786
2019-04-01T02:47:31.120Z,45.7328
2019-04-01T02:47:54.447Z,45.7664
2019-04-01T02:48:18.146Z,45.8259
2019-04-01T02:48:41.470Z,45.9815
2019-04-01T02:49:04.804Z,45.7511
2019-04-01T02:49:28.176Z,45.6565
2019-04-01T02:49:51.505Z,45.8015
2019-04-01T02:50:14.859Z,45.9617
2019-04-01T02:50:38.272Z,45.7694
2019-04-01T02:51:01.677Z,45.8351
2019-04-01T02:51:25.031Z,45.7938
2019-04-01T02:51:49.286Z,45.8351
2019-04-01T02:52:12.624Z,45.6687
2019-04-01T02:52:35.950Z,45.7237
2019-04-01T02:52:59.312Z,45.7069
2019-04-01T02:53:22.688Z,45.6870
2019-04-01T02:53:46.017Z,45.7923
2019-04-01T02:54:11.692Z,45.8076
2019-04-01T02:54:37.094Z,45.7374
2019-04-01T02:55:06.367Z,45.6825
2019-04-01T02:55:32.392Z,45.7389
2019-04-01T02:55:57.768Z,45.5283
2019-04-01T02:56:23.169Z,45.6291
2019-04-01T02:56:46.696Z,45.5970
2019-04-01T02:57:10.017Z,45.3864
2019-04-01T02:57:33.351Z,45.5512
2019-04-01T02:57:56.733Z,45.4261
2019-04-01T02:58:20.057Z,45.4734
2019-04-01T02:58:43.405Z,45.3620
2019-04-01T02:59:06.759Z,45.5009
2019-04-01T02:59:30.094Z,45.6550
2019-04-01T02:59:53.416Z,45.9174
2019-04-01T03:00:16.998Z,45.7374
2019-04-01T03:00:40.349Z,45.4322
2019-04-01T03:01:03.701Z,45.5283
2019-04-01T03:01:27.103Z,45.6199
2019-04-01T03:01:50.435Z,45.4673
2019-04-01T03:02:13.795Z,45.7298
2019-04-01T03:02:37.168Z,45.5009
2019-04-01T03:03:00.539Z,45.4093
2019-04-01T03:03:23.895Z,45.4597
2019-04-01T03:03:49.447Z,45.4261
2019-04-01T03:04:14.835Z,45.4368
2019-04-01T03:04:40.195Z,45.4353
2019-04-01T03:05:05.576Z,45.3361
2019-04-01T03:05:30.961Z,45.4994
2019-04-01T03:05:56.344Z,45.6916
2019-04-01T03:06:19.781Z,45.6550
2019-04-01T03:06:43.107Z,45.4627
2019-04-01T03:07:06.433Z,45.3529
2019-04-01T03:07:29.792Z,45.3529
2019-04-01T03:07:53.109Z,45.2857
2019-04-01T03:08:16.441Z,45.3223
2019-04-01T03:08:39.829Z,45.5146
2019-04-01T03:09:03.182Z,45.4582
2019-04-01T03:09:26.533Z,45.5451
2019-04-01T03:09:49.922Z,45.2262
2019-04-01T03:10:13.243Z,45.2247
2019-04-01T03:10:36.567Z,45.1972
2019-04-01T03:10:59.941Z,45.1804
2019-04-01T03:11:23.323Z,45.2018
2019-04-01T03:11:46.662Z,45.2720
2019-04-01T03:12:10.032Z,45.1835
2019-04-01T03:12:33.373Z,44.6860
2019-04-01T03:12:56.710Z,44.9378
2019-04-01T03:13:22.140Z,45.1423
2019-04-01T03:13:47.534Z,45.2293
2019-04-01T03:14:13.206Z,45.2445
2019-04-01T03:14:28.325Z,44.8722
2019-04-01T03:14:53.704Z,45.0553
2019-04-01T03:15:19.117Z,45.1667
2019-04-01T03:15:44.505Z,45.0614
2019-04-01T03:16:07.925Z,44.9821
2019-04-01T03:16:31.325Z,44.9958
2019-04-01T03:16:54.656Z,44.9699
2019-04-01T03:17:18.035Z,44.9454
2019-04-01T03:17:41.354Z,44.9287
2019-04-01T03:18:04.681Z,44.9546
2019-04-01T03:18:28.054Z,44.9866
2019-04-01T03:18:51.380Z,44.9744
2019-04-01T03:19:14.718Z,44.8631
2019-04-01T03:19:40.149Z,44.7944
2019-04-01T03:20:05.700Z,44.8051
2019-04-01T03:20:31.104Z,44.7807
2019-04-01T03:20:56.628Z,44.9775
2019-04-01T03:21:22.029Z,44.8264
2019-04-01T03:21:47.413Z,44.7761
2019-04-01T03:22:10.830Z,44.8310
2019-04-01T03:22:34.163Z,44.6387
2019-04-01T03:22:57.524Z,44.7120
2019-04-01T03:23:20.900Z,44.6662
2019-04-01T03:23:44.338Z,44.6708
2019-04-01T03:24:07.675Z,44.5853
2019-04-01T03:24:31.101Z,44.7044
2019-04-01T03:24:54.430Z,44.7272
2019-04-01T03:25:17.755Z,44.6250
2019-04-01T03:25:41.167Z,44.7135
2019-04-01T03:26:04.486Z,44.8692
2019-04-01T03:26:27.810Z,44.6632
2019-04-01T03:26:51.173Z,44.7181
2019-04-01T03:27:17.201Z,44.5441
2019-04-01T03:27:41.058Z,44.4739
2019-04-01T03:28:04.421Z,44.2771
2019-04-01T03:28:27.756Z,44.3366
2019-04-01T03:28:51.082Z,44.1901
2019-04-01T03:29:14.495Z,44.3702
2019-04-01T03:29:37.873Z,44.2832
2019-04-01T03:30:01.227Z,44.4739
2019-04-01T03:30:24.594Z,44.4785
2019-04-01T03:30:47.940Z,44.4892
2019-04-01T03:31:11.339Z,44.4144
2019-04-01T03:31:34.719Z,44.3961
2019-04-01T03:31:58.037Z,44.3290
2019-04-01T03:32:21.400Z,44.2176
2019-04-01T03:32:45.760Z,44.3870
2019-04-01T03:33:09.201Z,44.3732
2019-04-01T03:33:32.558Z,44.4419
2019-04-01T03:33:56.185Z,44.4602
2019-04-01T03:34:19.558Z,44.4709
2019-04-01T03:34:42.918Z,44.4831
2019-04-01T03:35:06.365Z,44.4892
2019-04-01T03:35:29.719Z,44.2954
2019-04-01T03:35:53.063Z,44.2496
2019-04-01T03:36:16.593Z,44.1215
2019-04-01T03:36:39.928Z,44.2649
2019-04-01T03:37:03.281Z,44.1856
2019-04-01T03:37:26.682Z,44.3336
2019-04-01T03:37:50.014Z,44.2679
2019-04-01T03:38:13.361Z,44.1413
2019-04-01T03:38:36.727Z,44.0848
2019-04-01T03:39:00.046Z,43.9994
2019-04-01T03:39:23.367Z,44.0864
2019-04-01T03:39:46.789Z,44.1596
2019-04-01T03:40:10.115Z,44.1276
2019-04-01T03:40:33.441Z,43.8834
2019-04-01T03:40:56.827Z,44.1032
2019-04-01T03:41:20.150Z,43.8529
2019-04-01T03:41:43.485Z,43.9078
2019-04-01T03:42:06.843Z,43.8529
2019-04-01T03:42:30.196Z,43.8209
2019-04-01T03:42:53.528Z,43.8285
2019-04-01T03:43:16.948Z,43.8605
2019-04-01T03:43:40.279Z,43.8209
2019-04-01T03:44:03.603Z,43.6271
2019-04-01T03:44:26.986Z,43.6820
2019-04-01T03:44:54.783Z,43.7797
2019-04-01T03:45:19.600Z,43.8056
2019-04-01T03:45:42.975Z,43.7293
2019-04-01T03:46:06.326Z,43.7522
2019-04-01T03:46:29.675Z,43.6820
2019-04-01T03:46:53.088Z,43.7201
2019-04-01T03:47:16.410Z,43.8575
2019-04-01T03:47:39.739Z,43.7568
2019-04-01T03:48:03.122Z,43.6912
2019-04-01T03:48:26.462Z,43.6225
2019-04-01T03:48:49.788Z,43.6973
2019-04-01T03:49:13.190Z,43.6179
2019-04-01T03:49:36.534Z,43.7278
2019-04-01T03:49:59.886Z,43.6820
2019-04-01T03:50:23.302Z,43.8651
2019-04-01T03:50:46.614Z,43.6240
2019-04-01T03:51:09.948Z,43.8376
2019-04-01T03:51:33.341Z,43.6271
2019-04-01T03:51:56.674Z,43.5950
2019-04-01T03:52:20.028Z,43.8666
2019-04-01T03:52:43.423Z,43.6927
2019-04-01T03:53:06.749Z,43.9429
2019-04-01T03:53:30.082Z,43.7919
2019-04-01T03:53:53.659Z,43.7827
2019-04-01T03:54:16.970Z,43.8102
2019-04-01T03:54:40.300Z,43.6362
2019-04-01T03:55:03.711Z,43.8941
2019-04-01T03:55:27.048Z,43.8605
2019-04-01T03:55:50.373Z,43.7278
2019-04-01T03:56:13.736Z,43.8575
2019-04-01T03:56:37.067Z,43.6179
2019-04-01T03:57:00.399Z,43.8102
2019-04-01T03:57:23.847Z,43.5813
2019-04-01T03:57:47.183Z,43.5599
2019-04-01T03:58:10.530Z,43.6377
2019-04-01T03:58:33.922Z,43.6286
2019-04-01T03:58:57.258Z,43.6088
2019-04-01T03:59:20.594Z,43.5813
2019-04-01T03:59:44.096Z,43.4913
2019-04-01T04:00:07.748Z,43.4089
2019-04-01T04:00:31.080Z,43.4623
2019-04-01T04:00:54.533Z,43.5035
2019-04-01T04:01:07.472Z,42.9969
2019-04-01T04:01:30.931Z,43.3341
2019-04-01T04:01:54.263Z,43.3036
2019-04-01T04:02:17.670Z,43.3661
2019-04-01T04:02:41.013Z,43.3356
2019-04-01T04:03:04.334Z,43.4623
2019-04-01T04:03:29.800Z,43.5218
2019-04-01T04:03:55.166Z,43.5859
2019-04-01T04:04:20.558Z,43.6866
2019-04-01T04:04:45.930Z,43.5355
2019-04-01T04:05:11.329Z,43.3356
2019-04-01T04:05:36.712Z,43.2517
2019-04-01T04:06:00.146Z,43.2441
2019-04-01T04:06:23.510Z,43.2197
2019-04-01T04:06:46.846Z,43.2059
2019-04-01T04:07:10.225Z,42.9816
2019-04-01T04:07:33.555Z,43.3631
2019-04-01T04:07:56.863Z,43.5218
2019-04-01T04:08:20.240Z,43.4028
2019-04-01T04:08:43.569Z,43.2670
2019-04-01T04:09:06.971Z,43.2807
2019-04-01T04:09:32.546Z,43.3722
2019-04-01T04:09:57.951Z,43.4256
2019-04-01T04:10:23.358Z,43.5172
2019-04-01T04:10:48.732Z,43.5599
2019-04-01T04:11:14.110Z,43.4043
2019-04-01T04:11:39.505Z,43.1937
2019-04-01T04:12:05.050Z,43.4485
2019-04-01T04:12:30.426Z,43.3677
2019-04-01T04:12:55.808Z,43.3036
2019-04-01T04:13:21.197Z,43.2792
2019-04-01T04:13:46.592Z,43.4501
2019-04-01T04:14:11.977Z,43.3249
2019-04-01T04:14:37.387Z,43.1098
2019-04-01T04:15:02.781Z,43.0930
2019-04-01T04:15:28.198Z,42.8351
2019-04-01T04:15:53.578Z,42.9328
2019-04-01T04:16:18.950Z,43.3844
2019-04-01T04:16:44.334Z,43.5584
2019-04-01T04:17:10.094Z,43.3890
2019-04-01T04:17:35.481Z,43.4134
2019-04-01T04:18:00.859Z,43.1388
2019-04-01T04:18:26.243Z,43.1525
2019-04-01T04:18:51.613Z,43.0961
2019-04-01T04:19:16.993Z,43.1067
2019-04-01T04:19:40.510Z,43.1754
2019-04-01T04:20:03.834Z,43.1830
2019-04-01T04:20:27.193Z,43.1571
2019-04-01T04:20:50.594Z,43.0426
2019-04-01T04:21:13.930Z,43.1754
2019-04-01T04:21:37.263Z,43.1281
2019-04-01T04:22:00.641Z,42.9450
2019-04-01T04:22:23.971Z,42.9679
2019-04-01T04:22:47.368Z,43.0976
2019-04-01T04:23:10.775Z,42.7985
2019-04-01T04:23:34.122Z,43.2013
2019-04-01T04:23:57.435Z,43.1296
2019-04-01T04:24:20.824Z,43.1327
2019-04-01T04:24:44.150Z,43.2349
2019-04-01T04:25:07.483Z,43.0426
2019-04-01T04:25:30.850Z,43.0823
2019-04-01T04:25:54.196Z,42.8641
2019-04-01T04:26:17.539Z,43.0564
2019-04-01T04:26:40.929Z,42.8901
2019-04-01T04:27:04.251Z,42.8870
2019-04-01T04:27:27.572Z,42.8534
2019-04-01T04:27:51.014Z,43.0549
2019-04-01T04:28:14.373Z,42.8916
2019-04-01T04:28:37.702Z,42.7207
2019-04-01T04:29:01.097Z,42.8687
2019-04-01T04:29:24.426Z,42.7176
2019-04-01T04:29:47.760Z,42.6978
2019-04-01T04:30:11.156Z,42.7985
2019-04-01T04:30:34.475Z,42.8534
2019-04-01T04:30:57.852Z,42.7115
2019-04-01T04:31:21.207Z,42.8000
2019-04-01T04:31:44.542Z,42.8214
2019-04-01T04:32:07.867Z,42.7939
2019-04-01T04:32:31.221Z,42.8763
2019-04-01T04:32:54.554Z,42.7497
2019-04-01T04:33:07.341Z,42.4521
2019-04-01T04:33:30.677Z,42.6352
2019-04-01T04:33:54.078Z,42.7543
2019-04-01T04:34:17.463Z,42.8077
2019-04-01T04:34:40.784Z,42.9175
2019-04-01T04:35:04.160Z,42.8443
2019-04-01T04:35:27.485Z,42.7298
2019-04-01T04:35:50.812Z,42.5116
2019-04-01T04:36:14.378Z,42.4887
2019-04-01T04:36:37.709Z,42.6474
2019-04-01T04:37:01.045Z,42.6520
2019-04-01T04:37:24.591Z,42.7573
2019-04-01T04:37:47.924Z,42.6215
2019-04-01T04:38:11.253Z,42.6154
2019-04-01T04:38:34.626Z,42.5879
2019-04-01T04:38:57.969Z,42.5574
2019-04-01T04:39:21.309Z,42.6947
2019-04-01T04:39:44.672Z,42.6932
2019-04-01T04:40:07.988Z,42.4842
2019-04-01T04:40:31.307Z,42.5437
2019-04-01T04:40:54.728Z,42.6169
2019-04-01T04:41:18.120Z,42.6886
2019-04-01T04:41:41.445Z,42.6429
2019-04-01T04:42:04.810Z,42.5925
2019-04-01T04:42:28.144Z,42.6078
2019-04-01T04:42:51.483Z,42.5711
2019-04-01T04:43:14.835Z,42.4964
2019-04-01T04:43:38.168Z,42.4689
2019-04-01T04:44:01.608Z,42.7085
2019-04-01T04:44:27.173Z,42.7909
2019-04-01T04:44:52.563Z,42.7985
2019-04-01T04:45:17.945Z,42.6017
2019-04-01T04:45:43.326Z,42.7451
2019-04-01T04:46:08.703Z,42.8367